createdAt,value
2023-05-24T00:00:00.374Z,50.12
2023-05-24T00:01:00.374Z,50.63
2023-05-24T00:02:00.331Z,53.00
2023-05-24T00:03:00.442Z,54.56
2023-05-24T00:04:00.485Z,44.41
2023-05-24T00:05:00.585Z,44.13
2023-05-24T00:06:01.080Z,47.83
2023-05-24T00:07:01.311Z,43.92
2023-05-24T00:08:00.317Z,43.39
2023-05-24T00:09:00.326Z,43.42
2023-05-24T00:10:00.263Z,52.26
2023-05-24T00:11:00.292Z,44.03
2023-05-24T00:12:00.288Z,50.24
2023-05-24T00:13:00.287Z,44.87
2023-05-24T00:14:00.266Z,44.56
2023-05-24T00:15:00.309Z,50.80
2023-05-24T00:16:00.290Z,43.35
2023-05-24T00:17:00.314Z,55.82
2023-05-24T00:18:00.460Z,45.05
2023-05-24T00:19:00.220Z,44.58
2023-05-24T00:20:00.286Z,43.68
2023-05-24T00:21:00.222Z,49.99
2023-05-24T00:22:00.190Z,53.59
2023-05-24T00:23:00.172Z,48.36
2023-05-24T00:24:00.165Z,52.53
2023-05-24T00:25:00.221Z,46.11
2023-05-24T00:26:00.181Z,57.57
2023-05-24T00:27:00.142Z,60.55
2023-05-24T00:28:00.196Z,56.55
2023-05-24T00:29:00.145Z,50.44
2023-05-24T00:30:00.629Z,60.52
2023-05-24T00:31:00.221Z,49.93
2023-05-24T00:32:00.250Z,55.09
2023-05-24T00:33:00.123Z,49.84
2023-05-24T00:34:00.111Z,44.75
2023-05-24T00:35:00.154Z,48.17
2023-05-24T00:36:00.157Z,49.93
2023-05-24T00:37:00.054Z,52.36
2023-05-24T00:38:00.101Z,52.10
2023-05-24T00:39:00.109Z,44.58
2023-05-24T00:40:00.054Z,48.84
2023-05-24T00:41:00.094Z,58.90
2023-05-24T00:42:00.047Z,43.85
2023-05-24T00:43:00.055Z,50.64
2023-05-24T00:44:00.049Z,54.63
2023-05-24T00:45:00.006Z,57.41
2023-05-24T00:46:00.035Z,44.85
2023-05-24T00:47:00.002Z,50.19
2023-05-24T00:48:00.834Z,55.71
2023-05-24T00:48:59.996Z,43.61
2023-05-24T00:50:00.015Z,54.66
2023-05-24T00:50:59.949Z,45.22
2023-05-24T00:51:59.967Z,43.90
2023-05-24T00:52:59.985Z,49.74
2023-05-24T00:53:59.935Z,50.63
2023-05-24T00:54:59.960Z,54.44
2023-05-24T00:55:59.923Z,44.30
2023-05-24T00:57:00.234Z,53.08
2023-05-24T00:57:59.898Z,54.00
2023-05-24T00:59:00.904Z,43.99
2023-05-24T00:59:59.899Z,50.18
2023-05-24T01:01:00.895Z,43.51
2023-05-24T01:02:00.732Z,48.49
2023-05-24T01:02:59.946Z,43.37
2023-05-24T01:04:00.382Z,48.47
2023-05-24T01:04:59.908Z,44.26
2023-05-24T01:05:59.840Z,45.87
2023-05-24T01:06:59.828Z,51.19
2023-05-24T01:07:59.869Z,43.91
2023-05-24T01:08:59.837Z,43.84
2023-05-24T01:09:59.885Z,43.70
2023-05-24T01:11:00.137Z,43.30
2023-05-24T01:11:59.825Z,42.97
2023-05-24T01:12:59.841Z,42.94
2023-05-24T01:14:00.775Z,45.34
2023-05-24T01:14:59.776Z,50.64
2023-05-24T01:15:59.949Z,48.39
2023-05-24T01:16:59.819Z,50.07
2023-05-24T01:17:59.795Z,44.14
2023-05-24T01:18:59.795Z,50.56
2023-05-24T01:19:59.771Z,53.28
2023-05-24T01:20:59.744Z,48.68
2023-05-24T01:21:59.913Z,43.48
2023-05-24T01:22:59.811Z,43.34
2023-05-24T01:23:59.728Z,44.30
2023-05-24T01:24:59.696Z,43.57
2023-05-24T01:25:59.706Z,49.66
2023-05-24T01:26:59.700Z,49.15
2023-05-24T01:27:59.671Z,51.48
2023-05-24T01:28:59.661Z,43.91
2023-05-24T01:29:59.679Z,43.61
2023-05-24T01:30:59.781Z,43.55
2023-05-24T01:31:59.709Z,42.85
2023-05-24T01:32:59.665Z,42.60
2023-05-24T01:33:59.651Z,43.86
2023-05-24T01:35:01.193Z,43.50
2023-05-24T01:35:59.602Z,49.66
2023-05-24T01:36:59.885Z,54.78
2023-05-24T01:37:59.608Z,43.68
2023-05-24T01:38:59.572Z,50.08
2023-05-24T01:39:59.591Z,43.09
2023-05-24T01:40:59.608Z,42.79
2023-05-24T01:42:00.586Z,46.44
2023-05-24T01:42:59.880Z,45.65
2023-05-24T01:43:59.540Z,49.20
2023-05-24T01:44:59.550Z,44.44
2023-05-24T01:45:59.527Z,50.05
2023-05-24T01:46:59.549Z,50.07
2023-05-24T01:47:59.607Z,49.14
2023-05-24T01:48:59.499Z,50.61
2023-05-24T01:50:01.244Z,45.51
2023-05-24T01:50:59.545Z,43.46
2023-05-24T01:51:59.637Z,43.98
2023-05-24T01:52:59.514Z,50.54
2023-05-24T01:53:59.498Z,43.80
2023-05-24T01:54:59.476Z,51.02
2023-05-24T01:55:59.948Z,46.19
2023-05-24T01:56:59.442Z,50.59
2023-05-24T01:57:59.449Z,45.48
2023-05-24T01:58:59.452Z,46.82
2023-05-24T01:59:59.427Z,51.70
2023-05-24T02:00:59.490Z,46.54
2023-05-24T02:01:59.451Z,47.54
2023-05-24T02:02:59.554Z,49.11
2023-05-24T02:03:59.419Z,47.60
2023-05-24T02:04:59.404Z,54.56
2023-05-24T02:06:00.237Z,46.47
2023-05-24T02:06:59.399Z,45.90
2023-05-24T02:07:59.392Z,51.11
2023-05-24T02:08:59.394Z,43.49
2023-05-24T02:09:59.359Z,43.72
2023-05-24T02:10:59.331Z,46.07
2023-05-24T02:11:59.371Z,51.53
2023-05-24T02:12:59.330Z,50.14
2023-05-24T02:13:59.374Z,51.33
2023-05-24T02:14:59.315Z,46.31
2023-05-24T02:15:59.294Z,47.65
2023-05-24T02:16:59.498Z,53.73
2023-05-24T02:17:59.320Z,54.43
2023-05-24T02:18:59.354Z,55.24
2023-05-24T02:20:00.509Z,53.77
2023-05-24T02:20:59.287Z,52.52
2023-05-24T02:21:59.247Z,54.01
2023-05-24T02:22:59.232Z,52.03
2023-05-24T02:23:59.285Z,51.83
2023-05-24T02:24:59.235Z,59.21
2023-05-24T02:25:59.244Z,53.71
2023-05-24T02:26:59.237Z,52.75
2023-05-24T02:27:59.240Z,54.40
2023-05-24T02:28:59.227Z,50.11
2023-05-24T02:30:31.688Z,52.14
2023-05-24T02:30:59.209Z,55.68
2023-05-24T02:31:59.161Z,49.60
2023-05-24T02:32:59.267Z,50.20
2023-05-24T02:34:33.196Z,53.83
2023-05-24T02:34:59.150Z,52.40
2023-05-24T02:35:59.144Z,53.66
2023-05-24T02:36:59.158Z,56.10
2023-05-24T02:37:59.161Z,58.51
2023-05-24T02:38:59.124Z,57.22
2023-05-24T02:39:59.148Z,55.49
2023-05-24T02:40:59.103Z,62.76
2023-05-24T02:41:59.119Z,52.95
2023-05-24T02:42:59.198Z,54.35
2023-05-24T02:44:00.116Z,55.12
2023-05-24T02:44:59.071Z,57.56
2023-05-24T02:45:59.067Z,55.70
2023-05-24T02:46:59.095Z,60.76
2023-05-24T02:47:59.069Z,54.53
2023-05-24T02:48:59.071Z,58.66
2023-05-24T02:49:59.016Z,60.38
2023-05-24T02:51:00.032Z,56.34
2023-05-24T02:51:59.071Z,54.66
2023-05-24T02:52:59.039Z,59.72
2023-05-24T02:53:59.003Z,50.92
2023-05-24T02:54:58.976Z,55.80
2023-05-24T02:55:58.960Z,52.17
2023-05-24T02:56:58.981Z,48.23
2023-05-24T02:57:59.006Z,54.96
2023-05-24T02:58:59.017Z,53.56
2023-05-24T02:59:58.953Z,58.20
2023-05-24T03:00:58.964Z,56.39
2023-05-24T03:01:59.019Z,55.79
2023-05-24T03:02:59.020Z,53.03
2023-05-24T03:03:58.962Z,52.91
2023-05-24T03:04:58.933Z,64.78
2023-05-24T03:05:58.911Z,56.37
2023-05-24T03:06:59.160Z,57.30
2023-05-24T03:08:00.685Z,57.37
2023-05-24T03:08:58.888Z,64.53
2023-05-24T03:09:58.880Z,56.26
2023-05-24T03:10:59.766Z,54.36
2023-05-24T03:11:58.874Z,65.99
2023-05-24T03:12:59.773Z,64.08
2023-05-24T03:13:58.896Z,62.16
2023-05-24T03:14:58.860Z,61.84
2023-05-24T03:15:59.769Z,61.13
2023-05-24T03:16:59.352Z,62.94
2023-05-24T03:17:58.869Z,60.49
2023-05-24T03:18:58.804Z,64.99
2023-05-24T03:19:58.802Z,58.82
2023-05-24T03:20:58.816Z,59.96
2023-05-24T03:21:58.789Z,57.45
2023-05-24T03:22:58.790Z,62.32
2023-05-24T03:23:58.757Z,57.71
2023-05-24T03:24:58.792Z,57.38
2023-05-24T03:25:58.738Z,65.87
2023-05-24T03:26:58.781Z,56.73
2023-05-24T03:27:58.788Z,60.19
2023-05-24T03:28:58.807Z,64.51
2023-05-24T03:29:58.776Z,62.79
2023-05-24T03:30:58.754Z,59.45
2023-05-24T03:31:58.799Z,65.36
2023-05-24T03:32:58.762Z,62.50
2023-05-24T03:33:58.675Z,57.45
2023-05-24T03:34:58.708Z,68.49
2023-05-24T03:35:58.691Z,57.26
2023-05-24T03:36:58.665Z,64.42
2023-05-24T03:37:59.296Z,64.01
2023-05-24T03:38:58.702Z,66.23
2023-05-24T03:39:58.668Z,63.27
2023-05-24T03:40:58.617Z,67.87
2023-05-24T03:41:58.635Z,62.32
2023-05-24T03:42:58.667Z,64.13
2023-05-24T03:43:58.654Z,64.38
2023-05-24T03:44:58.620Z,61.19
2023-05-24T03:45:58.610Z,69.47
2023-05-24T03:46:58.583Z,60.88
2023-05-24T04:04:05.088Z,63.03
2023-05-24T04:05:05.023Z,63.56
2023-05-24T04:06:04.976Z,62.34
2023-05-24T04:07:05.006Z,68.43
2023-05-24T04:08:06.144Z,69.96
2023-05-24T04:09:06.102Z,60.51
2023-05-24T04:10:06.105Z,66.14
2023-05-24T04:11:06.097Z,63.92
2023-05-24T04:12:06.121Z,65.19
2023-05-24T04:13:06.112Z,58.90
2023-05-24T04:14:06.077Z,61.97
2023-05-24T04:15:06.077Z,70.28
2023-05-24T04:16:06.053Z,62.11
2023-05-24T04:17:06.143Z,65.25
2023-05-24T04:18:06.151Z,62.30
2023-05-24T04:19:06.031Z,70.53
2023-05-24T04:20:06.061Z,66.85
2023-05-24T04:21:06.035Z,58.19
2023-05-24T04:22:06.021Z,65.88
2023-05-24T04:23:06.005Z,63.02
2023-05-24T04:24:05.995Z,72.86
2023-05-24T04:25:06.019Z,67.52
2023-05-24T04:26:06.011Z,68.77
2023-05-24T04:27:05.983Z,68.89
2023-05-24T04:28:05.974Z,66.66
2023-05-24T04:29:05.953Z,67.97
2023-05-24T04:30:05.974Z,70.60
2023-05-24T04:31:06.021Z,63.44
2023-05-24T04:32:05.921Z,65.76
2023-05-24T04:33:06.037Z,67.92
2023-05-24T04:34:05.924Z,66.33
2023-05-24T04:35:05.980Z,65.22
2023-05-24T04:36:05.952Z,64.02
2023-05-24T04:37:05.908Z,68.17
2023-05-24T04:38:05.944Z,66.92
2023-05-24T04:39:05.931Z,73.03
2023-05-24T04:40:05.873Z,68.23
2023-05-24T04:41:05.918Z,66.18
2023-05-24T04:42:05.874Z,68.12
2023-05-24T04:43:05.839Z,69.71
2023-05-24T04:44:05.868Z,66.46
2023-05-24T04:45:05.823Z,69.85
2023-05-24T04:46:06.870Z,66.19
2023-05-24T04:47:05.883Z,70.51
2023-05-24T04:48:05.836Z,64.33
2023-05-24T04:49:05.995Z,67.15
2023-05-24T04:50:05.814Z,71.53
2023-05-24T04:51:05.785Z,72.09
2023-05-24T04:52:05.806Z,68.60
2023-05-24T04:53:05.795Z,69.09
2023-05-24T04:54:05.764Z,66.45
2023-05-24T04:55:05.769Z,72.63
2023-05-24T04:56:05.778Z,66.77
2023-05-24T04:57:05.752Z,64.88
2023-05-24T04:58:05.780Z,65.15
2023-05-24T04:59:05.803Z,65.56
2023-05-24T05:00:05.750Z,64.50
2023-05-24T05:01:05.804Z,70.37
2023-05-24T05:02:05.889Z,70.20
2023-05-24T05:03:05.851Z,64.79
2023-05-24T05:04:06.787Z,67.82
2023-05-24T05:05:05.715Z,70.60
2023-05-24T05:06:05.673Z,70.43
2023-05-24T05:07:05.682Z,69.11
2023-05-24T05:08:05.684Z,67.62
2023-05-24T05:09:05.651Z,71.06
2023-05-24T05:10:05.675Z,65.90
2023-05-24T05:11:05.658Z,69.37
2023-05-24T05:12:05.613Z,68.96
2023-05-24T05:13:05.638Z,65.39
2023-05-24T05:14:05.663Z,71.43
2023-05-24T05:15:05.619Z,70.10
2023-05-24T05:16:05.671Z,70.72
2023-05-24T05:17:06.200Z,70.63
2023-05-24T05:18:05.667Z,70.46
2023-05-24T05:19:05.621Z,70.74
2023-05-24T05:20:05.723Z,72.82
2023-05-24T05:21:05.579Z,72.81
2023-05-24T05:22:38.141Z,71.47
2023-05-24T05:23:05.544Z,71.24
2023-05-24T05:24:05.566Z,70.75
2023-05-24T05:25:39.206Z,69.14
2023-05-24T05:26:05.520Z,74.70
2023-05-24T05:27:05.540Z,69.54
2023-05-24T05:28:05.508Z,71.77
2023-05-24T05:29:05.510Z,68.42
2023-05-24T05:30:05.477Z,70.65
2023-05-24T05:31:05.482Z,73.05
2023-05-24T05:32:05.508Z,73.35
2023-05-24T05:33:05.515Z,69.22
2023-05-24T05:34:05.454Z,68.88
2023-05-24T05:35:05.480Z,68.55
2023-05-24T05:36:05.448Z,71.78
2023-05-24T05:37:05.435Z,73.07
2023-05-24T05:38:05.415Z,67.92
2023-05-24T05:39:05.427Z,69.45
2023-05-24T05:40:05.395Z,70.99
2023-05-24T05:41:05.440Z,70.47
2023-05-24T05:42:05.378Z,71.85
2023-05-24T05:43:05.379Z,72.31
2023-05-24T05:44:05.379Z,71.47
2023-05-24T05:45:05.378Z,72.50
2023-05-24T05:46:05.361Z,69.28
2023-05-24T05:47:05.343Z,69.50
2023-05-24T05:48:05.505Z,69.83
2023-05-24T05:49:05.314Z,68.91
2023-05-24T05:50:05.302Z,68.63
2023-05-24T05:51:06.334Z,67.24
2023-05-24T05:52:05.306Z,65.11
2023-05-24T05:53:05.362Z,68.16
2023-05-24T05:54:05.287Z,71.54
2023-05-24T05:55:05.289Z,67.18
2023-05-24T05:56:05.304Z,66.50
2023-05-24T05:57:05.269Z,62.75
2023-05-24T05:58:05.283Z,68.96
2023-05-24T05:59:05.282Z,67.42
2023-05-24T06:00:05.308Z,68.95
2023-05-24T06:01:05.237Z,70.01
2023-05-24T06:02:05.261Z,64.50
2023-05-24T06:03:05.273Z,63.00
2023-05-24T06:04:05.328Z,64.87
2023-05-24T06:05:05.233Z,65.84
2023-05-24T06:06:05.188Z,74.45
2023-05-24T06:07:05.181Z,68.91
2023-05-24T06:08:05.181Z,65.75
2023-05-24T06:09:05.174Z,61.38
2023-05-24T06:10:05.183Z,66.85
2023-05-24T06:11:05.187Z,66.50
2023-05-24T06:12:05.153Z,67.45
2023-05-24T06:13:05.159Z,70.35
2023-05-24T06:14:05.128Z,66.95
2023-05-24T06:15:05.164Z,68.08
2023-05-24T06:16:05.209Z,67.07
2023-05-24T06:17:05.093Z,67.84
2023-05-24T06:18:05.135Z,67.90
2023-05-24T06:19:06.637Z,69.34
2023-05-24T06:20:06.160Z,70.43
2023-05-24T06:21:05.057Z,62.61
2023-05-24T06:22:05.070Z,66.90
2023-05-24T06:23:05.032Z,72.07
2023-05-24T06:24:05.064Z,70.65
2023-05-24T06:25:05.050Z,69.11
2023-05-24T06:26:05.075Z,66.94
2023-05-24T06:27:05.663Z,64.42
2023-05-24T06:28:06.103Z,65.70
2023-05-24T06:29:05.020Z,68.30
2023-05-24T06:30:05.074Z,69.13
2023-05-24T06:31:05.041Z,70.34
2023-05-24T06:32:05.010Z,68.81
2023-05-24T06:33:05.056Z,71.27
2023-05-24T06:34:05.041Z,71.81
2023-05-24T06:35:05.981Z,67.16
2023-05-24T06:36:05.045Z,69.96
2023-05-24T06:37:04.977Z,58.46
2023-05-24T06:38:04.923Z,72.49
2023-05-24T06:39:04.955Z,69.67
2023-05-24T06:40:04.963Z,64.69
2023-05-24T06:41:04.915Z,70.44
2023-05-24T06:42:04.910Z,64.28
2023-05-24T06:43:04.910Z,68.48
2023-05-24T06:44:04.920Z,64.34
2023-05-24T06:45:04.881Z,62.91
2023-05-24T06:46:04.899Z,68.64
2023-05-24T06:47:04.906Z,65.72
2023-05-24T06:48:04.968Z,66.86
2023-05-24T06:49:04.892Z,63.87
2023-05-24T06:50:04.885Z,65.49
2023-05-24T06:51:04.824Z,68.28
2023-05-24T06:52:04.805Z,67.61
2023-05-24T06:53:04.846Z,63.50
2023-05-24T06:54:04.871Z,66.03
2023-05-24T06:55:04.845Z,65.81
2023-05-24T06:56:04.798Z,69.00
2023-05-24T06:57:04.781Z,60.51
2023-05-24T06:58:04.766Z,66.94
2023-05-24T06:59:04.793Z,69.38
2023-05-24T07:00:05.765Z,68.61
2023-05-24T07:01:05.095Z,68.46
2023-05-24T07:02:04.969Z,63.86
2023-05-24T07:03:04.801Z,63.30
2023-05-24T07:04:04.801Z,62.45
2023-05-24T07:05:04.905Z,68.26
2023-05-24T07:06:04.721Z,67.73
2023-05-24T07:07:04.723Z,65.38
2023-05-24T07:08:19.336Z,66.52
2023-05-24T07:09:04.680Z,66.53
2023-05-24T07:10:04.708Z,64.37
2023-05-24T07:11:04.699Z,69.01
2023-05-24T07:12:06.418Z,70.03
2023-05-24T07:13:05.608Z,65.79
2023-05-24T07:14:04.666Z,69.10
2023-05-24T07:15:04.636Z,64.59
2023-05-24T07:16:04.663Z,70.75
2023-05-24T07:17:04.694Z,61.04
2023-05-24T07:18:04.651Z,59.81
2023-05-24T07:19:05.170Z,67.94
2023-05-24T07:20:05.720Z,62.09
2023-05-24T07:21:04.667Z,68.75
2023-05-24T07:22:04.634Z,62.23
2023-05-24T07:23:04.576Z,68.56
2023-05-24T07:24:04.572Z,70.92
2023-05-24T07:25:04.587Z,68.21
2023-05-24T07:26:04.599Z,60.55
2023-05-24T07:27:04.583Z,70.70
2023-05-24T07:28:04.527Z,63.04
2023-05-24T07:29:04.543Z,65.90
2023-05-24T07:30:04.538Z,64.34
2023-05-24T07:31:04.529Z,63.41
2023-05-24T07:32:04.570Z,65.66
2023-05-24T07:33:04.562Z,66.67
2023-05-24T07:34:04.522Z,69.27
2023-05-24T07:35:04.518Z,68.38
2023-05-24T07:36:04.517Z,69.36
2023-05-24T07:37:04.477Z,70.79
2023-05-24T07:38:04.476Z,70.55
2023-05-24T07:39:04.492Z,68.11
2023-05-24T07:40:05.309Z,71.03
2023-05-24T07:41:04.466Z,64.49
2023-05-24T07:42:04.471Z,64.31
2023-05-24T07:43:04.562Z,64.42
2023-05-24T07:44:04.470Z,60.13
2023-05-24T07:45:04.428Z,70.73
2023-05-24T07:46:04.481Z,64.99
2023-05-24T07:47:04.457Z,68.86
2023-05-24T07:48:04.443Z,65.50
2023-05-24T07:49:04.407Z,58.76
2023-05-24T07:50:04.416Z,65.81
2023-05-24T07:51:04.389Z,66.60
2023-05-24T07:52:04.388Z,60.68
2023-05-24T07:53:04.413Z,68.05
2023-05-24T07:54:04.355Z,67.94
2023-05-24T07:55:04.405Z,67.50
2023-05-24T07:56:04.366Z,64.89
2023-05-24T07:57:05.167Z,65.51
2023-05-24T07:58:04.344Z,65.60
2023-05-24T07:59:04.334Z,64.65
2023-05-24T08:00:04.317Z,64.86
2023-05-24T08:01:04.300Z,65.30
2023-05-24T08:02:04.306Z,67.27
2023-05-24T08:03:04.370Z,60.02
2023-05-24T08:04:04.480Z,69.89
2023-05-24T08:05:04.282Z,66.37
2023-05-24T08:06:04.264Z,65.80
2023-05-24T08:07:04.283Z,67.12
2023-05-24T08:08:04.258Z,69.91
2023-05-24T08:09:04.837Z,62.32
2023-05-24T08:10:04.261Z,64.14
2023-05-24T08:11:04.246Z,66.27
2023-05-24T08:12:04.216Z,67.69
2023-05-24T08:13:04.213Z,66.09
2023-05-24T08:14:04.261Z,64.80
2023-05-24T08:15:04.238Z,69.85
2023-05-24T08:16:04.170Z,67.45
2023-05-24T08:17:04.195Z,65.91
2023-05-24T08:18:05.190Z,66.16
2023-05-24T08:19:04.149Z,69.11
2023-05-24T08:20:04.161Z,62.15
2023-05-24T08:21:04.149Z,63.65
2023-05-24T08:22:04.145Z,60.78
2023-05-24T08:23:04.123Z,63.53
2023-05-24T08:24:06.146Z,62.93
2023-05-24T08:25:04.134Z,70.97
2023-05-24T08:26:04.135Z,63.16
2023-05-24T08:27:04.116Z,63.32
2023-05-24T08:28:04.139Z,63.45
2023-05-24T08:29:04.122Z,67.15
2023-05-24T08:30:04.106Z,70.36
2023-05-24T08:31:04.151Z,65.57
2023-05-24T08:32:04.150Z,65.44
2023-05-24T08:33:04.113Z,62.86
2023-05-24T08:34:04.138Z,66.47
2023-05-24T08:35:18.590Z,65.60
2023-05-24T08:36:06.018Z,60.72
2023-05-24T08:37:04.028Z,67.46
2023-05-24T08:38:04.032Z,67.79
2023-05-24T08:39:04.037Z,58.38
2023-05-24T08:40:04.006Z,66.24
2023-05-24T08:41:04.062Z,66.28
2023-05-24T08:42:09.858Z,62.45
2023-05-24T08:43:06.015Z,68.05
2023-05-24T08:44:03.986Z,69.63
2023-05-24T08:45:03.988Z,65.64
2023-05-24T08:46:04.036Z,69.12
2023-05-24T08:47:04.005Z,65.90
2023-05-24T08:48:04.084Z,67.18
2023-05-24T08:49:04.017Z,64.11
2023-05-24T08:50:03.937Z,60.63
2023-05-24T08:51:03.925Z,66.12
2023-05-24T08:52:03.914Z,65.44
2023-05-24T08:53:03.936Z,65.70
2023-05-24T08:54:03.899Z,67.04
2023-05-24T08:55:03.926Z,61.53
2023-05-24T08:56:03.903Z,69.58
2023-05-24T08:57:03.875Z,65.09
2023-05-24T08:58:03.875Z,57.64
2023-05-24T08:59:03.907Z,66.85
2023-05-24T09:00:05.807Z,65.93
2023-05-24T09:01:03.913Z,67.32
2023-05-24T09:02:03.987Z,64.92
2023-05-24T09:03:03.849Z,64.24
2023-05-24T09:04:03.985Z,67.51
2023-05-24T09:05:03.875Z,59.50
2023-05-24T09:06:03.893Z,64.46
2023-05-24T09:07:03.802Z,59.82
2023-05-24T09:08:03.800Z,68.64
2023-05-24T09:09:03.803Z,62.40
2023-05-24T09:10:03.844Z,62.55
2023-05-24T09:11:03.776Z,61.67
2023-05-24T09:12:03.816Z,68.93
2023-05-24T09:13:03.807Z,67.08
2023-05-24T09:14:03.746Z,67.76
2023-05-24T09:15:35.692Z,67.14
2023-05-24T09:16:03.780Z,68.67
2023-05-24T09:17:36.481Z,67.98
2023-05-24T09:18:03.762Z,67.32
2023-05-24T09:19:36.305Z,62.01
2023-05-24T09:20:03.775Z,59.99
2023-05-24T09:21:03.739Z,63.41
2023-05-24T09:22:03.678Z,57.39
2023-05-24T09:23:03.705Z,66.53
2023-05-24T09:24:03.655Z,62.71
2023-05-24T09:25:03.716Z,66.72
2023-05-24T09:26:03.673Z,61.10
2023-05-24T09:27:03.674Z,66.81
2023-05-24T09:28:03.638Z,61.70
2023-05-24T09:29:03.635Z,67.77
2023-05-24T09:30:03.677Z,65.55
2023-05-24T09:31:06.216Z,66.21
2023-05-24T09:32:04.640Z,58.66
2023-05-24T09:33:03.638Z,67.80
2023-05-24T09:34:03.600Z,64.59
2023-05-24T09:35:03.625Z,65.14
2023-05-24T09:36:03.665Z,65.52
2023-05-24T09:37:03.616Z,56.37
2023-05-24T09:38:03.574Z,65.55
2023-05-24T09:39:04.301Z,66.21
2023-05-24T09:40:03.555Z,67.55
2023-05-24T09:41:03.582Z,68.60
2023-05-24T09:42:03.605Z,64.87
2023-05-24T09:43:03.516Z,61.92
2023-05-24T09:44:03.513Z,65.60
2023-05-24T09:45:03.511Z,63.93
2023-05-24T09:46:03.515Z,66.23
2023-05-24T09:47:03.527Z,61.94
2023-05-24T09:48:03.559Z,62.98
2023-05-24T09:49:03.526Z,65.09
2023-05-24T09:50:03.564Z,62.21
2023-05-24T09:51:03.481Z,67.08
2023-05-24T09:52:03.558Z,67.19
2023-05-24T09:53:03.480Z,67.85
2023-05-24T09:54:03.539Z,64.50
2023-05-24T09:55:03.406Z,65.98
2023-05-24T09:56:03.427Z,68.57
2023-05-24T09:57:04.803Z,67.49
2023-05-24T09:58:03.409Z,64.00
2023-05-24T09:59:03.452Z,66.99
2023-05-24T10:00:03.403Z,61.04
2023-05-24T10:01:03.486Z,64.76
2023-05-24T10:02:03.386Z,60.05
2023-05-24T10:03:05.017Z,63.16
2023-05-24T10:04:05.472Z,69.59
2023-05-24T10:05:03.397Z,64.28
2023-05-24T10:06:03.371Z,63.88
2023-05-24T10:07:03.407Z,64.71
2023-05-24T10:08:03.325Z,70.08
2023-05-24T10:09:03.374Z,66.20
2023-05-24T10:10:05.992Z,66.27
2023-05-24T10:11:03.405Z,64.55
2023-05-24T10:12:03.350Z,69.02
2023-05-24T10:13:03.320Z,67.21
2023-05-24T10:14:03.339Z,68.08
2023-05-24T10:15:03.299Z,66.47
2023-05-24T10:16:03.343Z,63.17
2023-05-24T10:17:03.327Z,66.44
2023-05-24T10:18:03.294Z,67.26
2023-05-24T10:19:03.283Z,65.04
2023-05-24T10:20:03.308Z,65.98
2023-05-24T10:21:03.367Z,64.98
2023-05-24T10:22:03.220Z,68.43
2023-05-24T10:23:04.224Z,63.22
2023-05-24T10:24:03.227Z,65.62
2023-05-24T10:25:03.207Z,62.66
2023-05-24T10:26:03.229Z,67.58
2023-05-24T10:27:03.198Z,62.18
2023-05-24T10:28:03.168Z,70.45
2023-05-24T10:29:04.196Z,67.95
2023-05-24T10:30:04.575Z,66.03
2023-05-24T10:31:03.303Z,64.84
2023-05-24T10:32:03.917Z,66.94
2023-05-24T10:33:04.221Z,63.40
2023-05-24T10:34:07.903Z,66.62
2023-05-24T10:35:05.173Z,58.41
2023-05-24T10:36:03.123Z,65.03
2023-05-24T10:37:03.902Z,66.19
2023-05-24T10:38:03.140Z,67.35
2023-05-24T10:39:03.099Z,66.95
2023-05-24T10:40:03.097Z,67.15
2023-05-24T10:41:03.084Z,69.94
2023-05-24T10:42:03.084Z,59.94
2023-05-24T10:43:03.056Z,67.21
2023-05-24T10:45:04.070Z,62.36
2023-05-24T10:46:03.061Z,63.38
2023-05-24T10:47:03.941Z,66.64
2023-05-24T10:48:03.192Z,67.19
2023-05-24T10:49:17.490Z,66.31
2023-05-24T10:50:03.001Z,61.62
2023-05-24T10:51:03.988Z,64.31
2023-05-24T10:52:03.020Z,63.93
2023-05-24T10:53:03.005Z,64.65
2023-05-24T10:54:03.051Z,65.36
2023-05-24T10:55:04.271Z,70.39
2023-05-24T10:56:04.005Z,66.74
2023-05-24T10:57:02.999Z,69.21
2023-05-24T10:58:03.002Z,63.77
2023-05-24T10:59:02.996Z,67.06
2023-05-24T11:00:02.974Z,66.88
2023-05-24T11:01:02.996Z,66.45
2023-05-24T11:02:02.990Z,66.52
2023-05-24T11:03:03.005Z,63.18
2023-05-24T11:04:02.914Z,69.24
2023-05-24T11:05:02.995Z,68.72
2023-05-24T11:06:02.940Z,68.56
2023-05-24T11:07:02.910Z,70.94
2023-05-24T11:08:02.872Z,65.35
2023-05-24T11:09:02.849Z,70.58
2023-05-24T11:10:02.950Z,68.70
2023-05-24T11:11:15.039Z,64.51
2023-05-24T11:12:04.834Z,67.43
2023-05-24T11:13:02.849Z,64.96
2023-05-24T11:14:02.904Z,68.35
2023-05-24T11:15:02.861Z,62.83
2023-05-24T11:16:02.849Z,59.63
2023-05-24T11:17:02.844Z,67.27
2023-05-24T11:18:03.528Z,66.58
2023-05-24T11:19:02.808Z,66.53
2023-05-24T11:20:02.874Z,69.04
2023-05-24T11:21:02.821Z,64.05
2023-05-24T11:22:02.795Z,69.01
2023-05-24T11:23:02.805Z,63.10
2023-05-24T11:24:02.796Z,65.86
2023-05-24T11:25:02.770Z,65.07
2023-05-24T11:26:02.797Z,65.83
2023-05-24T11:27:02.799Z,67.69
2023-05-24T11:28:02.792Z,67.94
2023-05-24T11:29:05.216Z,67.13
2023-05-24T11:30:03.743Z,63.99
2023-05-24T11:31:02.749Z,67.89
2023-05-24T11:32:03.528Z,64.00
2023-05-24T11:33:02.722Z,68.52
2023-05-24T11:34:02.723Z,60.96
2023-05-24T11:35:02.709Z,67.32
2023-05-24T11:36:02.695Z,62.20
2023-05-24T11:37:02.660Z,63.70
2023-05-24T11:38:02.717Z,64.69
2023-05-24T11:39:02.624Z,66.44
2023-05-24T11:40:02.684Z,61.37
2023-05-24T11:41:02.706Z,65.69
2023-05-24T11:42:02.635Z,65.15
2023-05-24T11:43:02.742Z,67.40
2023-05-24T11:44:02.645Z,65.78
2023-05-24T11:45:02.669Z,64.87
2023-05-24T11:46:02.788Z,65.12
2023-05-24T11:47:02.605Z,62.67
2023-05-24T11:48:02.602Z,63.47
2023-05-24T11:49:02.604Z,65.97
2023-05-24T11:50:02.648Z,67.69
2023-05-24T11:51:02.563Z,65.01
2023-05-24T11:52:02.535Z,61.12
2023-05-24T11:53:02.612Z,68.32
2023-05-24T11:54:02.556Z,63.95
2023-05-24T11:55:02.573Z,63.93
2023-05-24T11:56:02.565Z,64.86
2023-05-24T11:57:02.538Z,63.30
2023-05-24T11:58:02.604Z,68.92
2023-05-24T11:59:02.529Z,67.43
2023-05-24T12:00:03.366Z,63.20
2023-05-24T12:01:02.492Z,62.67
2023-05-24T12:02:02.609Z,60.58
2023-05-24T12:03:02.596Z,68.24
2023-05-24T12:04:02.617Z,68.94
2023-05-24T12:05:03.583Z,65.52
2023-05-24T12:06:02.464Z,70.34
2023-05-24T12:07:03.577Z,66.81
2023-05-24T12:08:02.460Z,62.38
2023-05-24T12:09:02.514Z,68.70
2023-05-24T12:10:02.504Z,64.71
2023-05-24T12:11:02.449Z,68.00
2023-05-24T12:12:02.434Z,62.60
2023-05-24T12:13:02.426Z,61.47
2023-05-24T12:14:02.467Z,67.63
2023-05-24T12:15:02.505Z,65.23
2023-05-24T12:16:02.406Z,64.31
2023-05-24T12:17:02.428Z,61.59
2023-05-24T12:18:02.472Z,68.46
2023-05-24T12:19:07.134Z,63.09
2023-05-24T12:20:04.480Z,66.33
2023-05-24T12:21:02.337Z,63.25
2023-05-24T12:22:02.349Z,72.14
2023-05-24T12:23:02.593Z,64.53
2023-05-24T12:24:02.340Z,65.32
2023-05-24T12:25:02.362Z,61.97
2023-05-24T12:26:02.356Z,67.85
2023-05-24T12:27:02.362Z,66.49
2023-05-24T12:28:02.291Z,65.51
2023-05-24T12:29:03.130Z,70.49
2023-05-24T12:30:02.281Z,68.80
2023-05-24T12:31:02.380Z,67.54
2023-05-24T12:32:02.294Z,65.38
2023-05-24T12:33:02.389Z,64.66
2023-05-24T12:34:02.285Z,59.49
2023-05-24T12:35:02.247Z,66.69
2023-05-24T12:36:02.561Z,65.84
2023-05-24T12:37:02.263Z,66.39
2023-05-24T12:38:02.281Z,67.49
2023-05-24T12:39:02.245Z,68.24
2023-05-24T12:40:02.219Z,66.23
2023-05-24T12:42:04.850Z,67.19
2023-05-24T12:43:02.221Z,61.38
2023-05-24T12:44:02.327Z,62.24
2023-05-24T12:45:02.200Z,64.70
2023-05-24T12:46:02.794Z,63.45
2023-05-24T12:47:02.913Z,70.27
2023-05-24T12:48:02.198Z,68.57
2023-05-24T12:49:02.129Z,67.32
2023-05-24T12:50:02.133Z,63.92
2023-05-24T12:51:03.112Z,69.78
2023-05-24T12:52:02.291Z,68.39
2023-05-24T12:53:02.103Z,66.83
2023-05-24T12:54:02.115Z,70.19
2023-05-24T12:55:02.203Z,65.49
2023-05-24T12:56:02.065Z,65.92
2023-05-24T12:57:02.097Z,62.50
2023-05-24T12:58:02.126Z,63.01
2023-05-24T12:59:02.095Z,62.89
2023-05-24T13:00:02.032Z,68.05
2023-05-24T13:01:02.080Z,68.43
2023-05-24T13:02:02.286Z,65.79
2023-05-24T13:03:02.633Z,67.96
2023-05-24T13:04:02.012Z,65.95
2023-05-24T13:05:02.092Z,63.63
2023-05-24T13:06:02.052Z,66.61
2023-05-24T13:07:02.051Z,69.83
2023-05-24T13:08:02.065Z,65.36
2023-05-24T13:09:02.079Z,65.94
2023-05-24T13:10:02.043Z,67.29